sensor_id;sensor_type;location;lat;lon;timestamp;P1;durP1;ratioP1;P2;durP2;ratioP2
15363;SDS011;7781;49.690;6.472;2023-05-07T00:00:09;2.43;;;1.90;;
15363;SDS011;7781;49.690;6.472;2023-05-07T00:02:38;1.87;;;1.77;;
15363;SDS011;7781;49.690;6.472;2023-05-07T00:05:07;2.47;;;1.80;;
15363;SDS011;7781;49.690;6.472;2023-05-07T00:07:37;2.33;;;1.87;;
15363;SDS011;7781;49.690;6.472;2023-05-07T00:10:06;2.00;;;1.83;;
15363;SDS011;7781;49.690;6.472;2023-05-07T00:12:36;1.90;;;1.80;;
15363;SDS011;7781;49.690;6.472;2023-05-07T00:15:05;6.77;;;1.70;;
15363;SDS011;7781;49.690;6.472;2023-05-07T00:17:37;3.27;;;2.20;;
15363;SDS011;7781;49.690;6.472;2023-05-07T00:20:08;1.70;;;1.60;;
15363;SDS011;7781;49.690;6.472;2023-05-07T00:22:39;4.07;;;1.90;;
15363;SDS011;7781;49.690;6.472;2023-05-07T00:25:09;2.60;;;1.50;;
15363;SDS011;7781;49.690;6.472;2023-05-07T00:27:38;3.90;;;1.73;;
15363;SDS011;7781;49.690;6.472;2023-05-07T00:30:09;2.13;;;1.70;;
15363;SDS011;7781;49.690;6.472;2023-05-07T00:32:38;2.97;;;1.77;;
15363;SDS011;7781;49.690;6.472;2023-05-07T00:35:08;1.67;;;1.53;;
15363;SDS011;7781;49.690;6.472;2023-05-07T00:37:38;3.73;;;2.20;;
15363;SDS011;7781;49.690;6.472;2023-05-07T00:40:07;2.57;;;1.73;;
15363;SDS011;7781;49.690;6.472;2023-05-07T00:42:37;1.77;;;1.53;;
15363;SDS011;7781;49.690;6.472;2023-05-07T00:45:09;2.00;;;1.53;;
15363;SDS011;7781;49.690;6.472;2023-05-07T00:47:38;2.37;;;1.97;;
15363;SDS011;7781;49.690;6.472;2023-05-07T00:50:07;2.17;;;1.67;;
15363;SDS011;7781;49.690;6.472;2023-05-07T00:52:40;1.87;;;1.77;;
15363;SDS011;7781;49.690;6.472;2023-05-07T00:55:09;3.47;;;1.70;;
15363;SDS011;7781;49.690;6.472;2023-05-07T00:57:39;4.27;;;2.07;;
15363;SDS011;7781;49.690;6.472;2023-05-07T01:00:11;1.97;;;1.87;;
15363;SDS011;7781;49.690;6.472;2023-05-07T01:02:41;2.63;;;1.87;;
15363;SDS011;7781;49.690;6.472;2023-05-07T01:05:11;2.10;;;1.90;;
15363;SDS011;7781;49.690;6.472;2023-05-07T01:07:42;2.30;;;2.10;;
15363;SDS011;7781;49.690;6.472;2023-05-07T01:10:12;5.63;;;1.90;;
15363;SDS011;7781;49.690;6.472;2023-05-07T01:12:41;1.70;;;1.60;;
15363;SDS011;7781;49.690;6.472;2023-05-07T01:15:14;1.50;;;1.40;;
15363;SDS011;7781;49.690;6.472;2023-05-07T01:17:44;2.83;;;1.93;;
15363;SDS011;7781;49.690;6.472;2023-05-07T01:20:20;2.90;;;1.80;;
15363;SDS011;7781;49.690;6.472;2023-05-07T01:22:54;2.37;;;2.17;;
15363;SDS011;7781;49.690;6.472;2023-05-07T01:25:24;6.20;;;1.80;;
15363;SDS011;7781;49.690;6.472;2023-05-07T01:27:56;6.10;;;1.77;;
15363;SDS011;7781;49.690;6.472;2023-05-07T01:30:28;5.13;;;1.93;;
15363;SDS011;7781;49.690;6.472;2023-05-07T01:33:01;3.27;;;1.90;;
15363;SDS011;7781;49.690;6.472;2023-05-07T01:35:34;2.03;;;1.63;;
15363;SDS011;7781;49.690;6.472;2023-05-07T01:38:08;3.80;;;2.00;;
15363;SDS011;7781;49.690;6.472;2023-05-07T01:40:37;2.10;;;1.90;;
15363;SDS011;7781;49.690;6.472;2023-05-07T01:43:05;4.10;;;1.63;;
15363;SDS011;7781;49.690;6.472;2023-05-07T01:45:35;2.13;;;1.93;;
15363;SDS011;7781;49.690;6.472;2023-05-07T01:48:04;9.30;;;1.80;;
15363;SDS011;7781;49.690;6.472;2023-05-07T01:50:33;1.70;;;1.47;;
15363;SDS011;7781;49.690;6.472;2023-05-07T01:53:03;2.57;;;1.90;;
15363;SDS011;7781;49.690;6.472;2023-05-07T01:55:33;2.00;;;1.80;;
15363;SDS011;7781;49.690;6.472;2023-05-07T01:58:03;2.77;;;2.00;;
15363;SDS011;7781;49.690;6.472;2023-05-07T02:00:32;1.83;;;1.50;;
15363;SDS011;7781;49.690;6.472;2023-05-07T02:03:00;1.90;;;1.50;;
15363;SDS011;7781;49.690;6.472;2023-05-07T02:05:43;3.50;;;2.30;;
15363;SDS011;7781;49.690;6.472;2023-05-07T02:08:19;2.13;;;1.93;;
15363;SDS011;7781;49.690;6.472;2023-05-07T02:10:51;3.33;;;1.80;;
15363;SDS011;7781;49.690;6.472;2023-05-07T02:13:20;1.80;;;1.60;;
15363;SDS011;7781;49.690;6.472;2023-05-07T02:15:52;1.80;;;1.63;;
15363;SDS011;7781;49.690;6.472;2023-05-07T02:18:22;2.33;;;2.13;;
15363;SDS011;7781;49.690;6.472;2023-05-07T02:20:51;6.53;;;1.97;;
15363;SDS011;7781;49.690;6.472;2023-05-07T02:23:24;5.07;;;2.07;;
15363;SDS011;7781;49.690;6.472;2023-05-07T02:25:55;2.07;;;1.60;;
15363;SDS011;7781;49.690;6.472;2023-05-07T02:28:24;3.67;;;1.80;;
15363;SDS011;7781;49.690;6.472;2023-05-07T02:31:03;2.73;;;1.90;;
15363;SDS011;7781;49.690;6.472;2023-05-07T02:33:33;3.80;;;2.10;;
15363;SDS011;7781;49.690;6.472;2023-05-07T02:36:06;5.70;;;1.87;;
15363;SDS011;7781;49.690;6.472;2023-05-07T02:38:41;4.87;;;2.27;;
15363;SDS011;7781;49.690;6.472;2023-05-07T02:41:11;2.13;;;2.00;;
15363;SDS011;7781;49.690;6.472;2023-05-07T02:43:40;2.90;;;2.00;;
15363;SDS011;7781;49.690;6.472;2023-05-07T02:46:10;7.33;;;2.73;;
15363;SDS011;7781;49.690;6.472;2023-05-07T02:48:43;2.53;;;1.80;;
15363;SDS011;7781;49.690;6.472;2023-05-07T02:51:12;5.50;;;2.00;;
15363;SDS011;7781;49.690;6.472;2023-05-07T02:53:46;4.50;;;2.03;;
15363;SDS011;7781;49.690;6.472;2023-05-07T02:56:16;2.03;;;1.83;;
15363;SDS011;7781;49.690;6.472;2023-05-07T02:58:44;2.03;;;1.83;;
15363;SDS011;7781;49.690;6.472;2023-05-07T03:01:14;4.37;;;2.00;;
15363;SDS011;7781;49.690;6.472;2023-05-07T03:04:04;6.23;;;1.90;;
15363;SDS011;7781;49.690;6.472;2023-05-07T03:06:33;2.60;;;2.40;;
15363;SDS011;7781;49.690;6.472;2023-05-07T03:09:02;2.10;;;1.90;;
15363;SDS011;7781;49.690;6.472;2023-05-07T03:14:03;3.70;;;2.20;;
15363;SDS011;7781;49.690;6.472;2023-05-07T03:16:33;3.07;;;2.27;;
15363;SDS011;7781;49.690;6.472;2023-05-07T03:19:02;2.20;;;2.00;;
15363;SDS011;7781;49.690;6.472;2023-05-07T03:21:31;2.77;;;1.83;;
15363;SDS011;7781;49.690;6.472;2023-05-07T03:24:02;2.50;;;2.27;;
15363;SDS011;7781;49.690;6.472;2023-05-07T03:26:30;3.03;;;2.43;;
15363;SDS011;7781;49.690;6.472;2023-05-07T03:29:02;2.53;;;2.27;;
15363;SDS011;7781;49.690;6.472;2023-05-07T03:31:30;4.30;;;2.23;;
15363;SDS011;7781;49.690;6.472;2023-05-07T03:34:00;5.90;;;2.53;;
15363;SDS011;7781;49.690;6.472;2023-05-07T03:36:29;3.40;;;2.23;;
15363;SDS011;7781;49.690;6.472;2023-05-07T03:38:58;2.53;;;1.90;;
15363;SDS011;7781;49.690;6.472;2023-05-07T03:41:34;4.10;;;2.60;;
15363;SDS011;7781;49.690;6.472;2023-05-07T03:44:04;2.77;;;2.00;;
15363;SDS011;7781;49.690;6.472;2023-05-07T03:46:33;3.37;;;2.47;;
15363;SDS011;7781;49.690;6.472;2023-05-07T03:49:03;2.20;;;1.80;;
15363;SDS011;7781;49.690;6.472;2023-05-07T03:51:32;2.30;;;2.10;;
15363;SDS011;7781;49.690;6.472;2023-05-07T03:54:05;2.17;;;2.00;;
15363;SDS011;7781;49.690;6.472;2023-05-07T03:56:33;3.93;;;1.77;;
15363;SDS011;7781;49.690;6.472;2023-05-07T03:59:03;5.13;;;1.83;;
15363;SDS011;7781;49.690;6.472;2023-05-07T04:01:34;3.67;;;2.13;;
15363;SDS011;7781;49.690;6.472;2023-05-07T04:04:06;2.80;;;1.80;;
15363;SDS011;7781;49.690;6.472;2023-05-07T04:06:35;3.53;;;2.30;;
15363;SDS011;7781;49.690;6.472;2023-05-07T04:09:05;3.10;;;2.20;;
15363;SDS011;7781;49.690;6.472;2023-05-07T04:11:36;2.80;;;2.17;;
15363;SDS011;7781;49.690;6.472;2023-05-07T04:14:10;2.53;;;2.20;;
15363;SDS011;7781;49.690;6.472;2023-05-07T04:16:40;2.40;;;2.17;;
15363;SDS011;7781;49.690;6.472;2023-05-07T04:19:08;2.40;;;2.20;;
15363;SDS011;7781;49.690;6.472;2023-05-07T04:21:38;2.50;;;2.20;;
15363;SDS011;7781;49.690;6.472;2023-05-07T04:24:09;5.70;;;2.63;;
15363;SDS011;7781;49.690;6.472;2023-05-07T04:26:37;4.87;;;2.00;;
15363;SDS011;7781;49.690;6.472;2023-05-07T04:29:10;3.00;;;2.07;;
15363;SDS011;7781;49.690;6.472;2023-05-07T04:31:38;2.10;;;1.90;;
15363;SDS011;7781;49.690;6.472;2023-05-07T04:34:11;3.63;;;2.00;;
15363;SDS011;7781;49.690;6.472;2023-05-07T04:36:42;3.20;;;2.53;;
15363;SDS011;7781;49.690;6.472;2023-05-07T04:39:13;3.77;;;2.57;;
15363;SDS011;7781;49.690;6.472;2023-05-07T04:41:44;2.37;;;2.17;;
15363;SDS011;7781;49.690;6.472;2023-05-07T04:44:15;5.50;;;2.40;;
15363;SDS011;7781;49.690;6.472;2023-05-07T04:46:44;2.20;;;2.00;;
15363;SDS011;7781;49.690;6.472;2023-05-07T04:49:12;3.97;;;2.50;;
15363;SDS011;7781;49.690;6.472;2023-05-07T04:51:42;2.90;;;2.53;;
15363;SDS011;7781;49.690;6.472;2023-05-07T04:54:13;2.77;;;2.57;;
15363;SDS011;7781;49.690;6.472;2023-05-07T04:56:41;4.80;;;3.30;;
15363;SDS011;7781;49.690;6.472;2023-05-07T04:59:11;3.27;;;2.80;;
15363;SDS011;7781;49.690;6.472;2023-05-07T05:01:41;3.33;;;3.00;;
15363;SDS011;7781;49.690;6.472;2023-05-07T05:04:11;10.47;;;3.10;;
15363;SDS011;7781;49.690;6.472;2023-05-07T05:06:41;6.07;;;2.60;;
15363;SDS011;7781;49.690;6.472;2023-05-07T05:09:10;5.67;;;2.90;;
15363;SDS011;7781;49.690;6.472;2023-05-07T05:11:40;4.40;;;3.10;;
15363;SDS011;7781;49.690;6.472;2023-05-07T05:14:09;5.63;;;3.00;;
15363;SDS011;7781;49.690;6.472;2023-05-07T05:16:37;3.10;;;2.73;;
15363;SDS011;7781;49.690;6.472;2023-05-07T05:19:10;3.27;;;2.67;;
15363;SDS011;7781;49.690;6.472;2023-05-07T05:21:40;3.90;;;2.60;;
15363;SDS011;7781;49.690;6.472;2023-05-07T05:24:10;9.27;;;3.37;;
15363;SDS011;7781;49.690;6.472;2023-05-07T05:26:39;4.50;;;2.93;;
15363;SDS011;7781;49.690;6.472;2023-05-07T05:29:12;8.23;;;3.23;;
15363;SDS011;7781;49.690;6.472;2023-05-07T05:31:42;5.43;;;3.00;;
15363;SDS011;7781;49.690;6.472;2023-05-07T05:34:12;3.20;;;2.93;;
15363;SDS011;7781;49.690;6.472;2023-05-07T05:36:42;3.37;;;3.00;;
15363;SDS011;7781;49.690;6.472;2023-05-07T05:39:13;3.37;;;2.83;;
15363;SDS011;7781;49.690;6.472;2023-05-07T05:41:42;4.13;;;3.10;;
15363;SDS011;7781;49.690;6.472;2023-05-07T05:44:12;3.60;;;2.90;;
15363;SDS011;7781;49.690;6.472;2023-05-07T05:46:41;3.63;;;3.03;;
15363;SDS011;7781;49.690;6.472;2023-05-07T05:49:10;3.27;;;2.60;;
15363;SDS011;7781;49.690;6.472;2023-05-07T05:51:41;3.80;;;3.37;;
15363;SDS011;7781;49.690;6.472;2023-05-07T05:54:11;3.07;;;2.77;;
15363;SDS011;7781;49.690;6.472;2023-05-07T05:56:41;4.30;;;2.90;;
15363;SDS011;7781;49.690;6.472;2023-05-07T05:59:09;3.67;;;2.63;;
15363;SDS011;7781;49.690;6.472;2023-05-07T06:01:38;3.20;;;2.97;;
15363;SDS011;7781;49.690;6.472;2023-05-07T06:04:07;4.80;;;2.60;;
15363;SDS011;7781;49.690;6.472;2023-05-07T06:06:37;2.97;;;2.70;;
15363;SDS011;7781;49.690;6.472;2023-05-07T06:09:07;3.73;;;2.20;;
15363;SDS011;7781;49.690;6.472;2023-05-07T06:11:43;4.10;;;2.50;;
15363;SDS011;7781;49.690;6.472;2023-05-07T06:14:12;3.07;;;2.57;;
15363;SDS011;7781;49.690;6.472;2023-05-07T06:16:42;2.50;;;2.30;;
15363;SDS011;7781;49.690;6.472;2023-05-07T06:19:11;3.97;;;2.63;;
15363;SDS011;7781;49.690;6.472;2023-05-07T06:21:42;2.63;;;2.30;;
15363;SDS011;7781;49.690;6.472;2023-05-07T06:24:11;3.73;;;2.97;;
15363;SDS011;7781;49.690;6.472;2023-05-07T06:26:42;3.43;;;2.50;;
15363;SDS011;7781;49.690;6.472;2023-05-07T06:29:12;3.67;;;3.03;;
15363;SDS011;7781;49.690;6.472;2023-05-07T06:31:41;4.40;;;2.83;;
15363;SDS011;7781;49.690;6.472;2023-05-07T06:34:11;3.20;;;2.60;;
15363;SDS011;7781;49.690;6.472;2023-05-07T06:36:43;2.93;;;2.63;;
15363;SDS011;7781;49.690;6.472;2023-05-07T06:39:21;3.63;;;2.60;;
15363;SDS011;7781;49.690;6.472;2023-05-07T06:41:51;2.97;;;2.77;;
15363;SDS011;7781;49.690;6.472;2023-05-07T06:44:26;4.43;;;2.90;;
15363;SDS011;7781;49.690;6.472;2023-05-07T06:47:09;3.40;;;2.93;;
15363;SDS011;7781;49.690;6.472;2023-05-07T06:49:46;4.40;;;2.87;;
15363;SDS011;7781;49.690;6.472;2023-05-07T06:52:21;3.50;;;3.20;;
15363;SDS011;7781;49.690;6.472;2023-05-07T06:54:50;4.97;;;2.50;;
15363;SDS011;7781;49.690;6.472;2023-05-07T06:57:20;3.53;;;2.90;;
15363;SDS011;7781;49.690;6.472;2023-05-07T06:59:49;6.10;;;3.83;;
15363;SDS011;7781;49.690;6.472;2023-05-07T07:02:20;3.33;;;2.60;;
15363;SDS011;7781;49.690;6.472;2023-05-07T07:04:49;5.10;;;3.50;;
15363;SDS011;7781;49.690;6.472;2023-05-07T07:07:18;6.13;;;3.07;;
15363;SDS011;7781;49.690;6.472;2023-05-07T07:09:51;3.43;;;3.13;;
15363;SDS011;7781;49.690;6.472;2023-05-07T07:12:20;3.90;;;2.53;;
15363;SDS011;7781;49.690;6.472;2023-05-07T07:14:49;3.10;;;2.80;;
15363;SDS011;7781;49.690;6.472;2023-05-07T07:17:21;2.67;;;2.47;;
15363;SDS011;7781;49.690;6.472;2023-05-07T07:19:49;7.27;;;2.97;;
15363;SDS011;7781;49.690;6.472;2023-05-07T07:22:18;3.40;;;3.07;;
15363;SDS011;7781;49.690;6.472;2023-05-07T07:24:52;4.80;;;2.77;;
15363;SDS011;7781;49.690;6.472;2023-05-07T07:27:22;4.93;;;2.80;;
15363;SDS011;7781;49.690;6.472;2023-05-07T07:29:51;3.63;;;2.80;;
15363;SDS011;7781;49.690;6.472;2023-05-07T07:32:20;4.10;;;2.30;;
15363;SDS011;7781;49.690;6.472;2023-05-07T07:34:51;3.33;;;2.30;;
15363;SDS011;7781;49.690;6.472;2023-05-07T07:37:23;3.27;;;2.70;;
15363;SDS011;7781;49.690;6.472;2023-05-07T07:39:52;6.63;;;2.40;;
15363;SDS011;7781;49.690;6.472;2023-05-07T07:42:21;2.63;;;2.40;;
15363;SDS011;7781;49.690;6.472;2023-05-07T07:44:50;3.80;;;2.20;;
15363;SDS011;7781;49.690;6.472;2023-05-07T07:47:22;3.00;;;2.07;;
15363;SDS011;7781;49.690;6.472;2023-05-07T07:49:53;2.93;;;2.10;;
15363;SDS011;7781;49.690;6.472;2023-05-07T07:52:27;9.00;;;2.73;;
15363;SDS011;7781;49.690;6.472;2023-05-07T07:54:56;7.10;;;2.53;;
15363;SDS011;7781;49.690;6.472;2023-05-07T07:57:26;3.20;;;2.20;;
15363;SDS011;7781;49.690;6.472;2023-05-07T07:59:57;5.20;;;2.70;;
15363;SDS011;7781;49.690;6.472;2023-05-07T08:02:25;2.90;;;2.00;;
15363;SDS011;7781;49.690;6.472;2023-05-07T08:04:54;4.83;;;2.00;;
15363;SDS011;7781;49.690;6.472;2023-05-07T08:07:23;2.10;;;1.80;;
15363;SDS011;7781;49.690;6.472;2023-05-07T08:09:56;3.33;;;2.30;;
15363;SDS011;7781;49.690;6.472;2023-05-07T08:12:25;3.50;;;2.00;;
15363;SDS011;7781;49.690;6.472;2023-05-07T08:14:54;2.50;;;2.13;;
15363;SDS011;7781;49.690;6.472;2023-05-07T08:17:22;3.47;;;2.03;;
15363;SDS011;7781;49.690;6.472;2023-05-07T08:19:52;4.90;;;1.90;;
15363;SDS011;7781;49.690;6.472;2023-05-07T08:22:20;2.03;;;1.83;;
15363;SDS011;7781;49.690;6.472;2023-05-07T08:24:49;4.27;;;1.90;;
15363;SDS011;7781;49.690;6.472;2023-05-07T08:27:23;2.50;;;2.20;;
15363;SDS011;7781;49.690;6.472;2023-05-07T08:29:52;4.50;;;2.23;;
15363;SDS011;7781;49.690;6.472;2023-05-07T08:32:21;2.27;;;1.90;;
15363;SDS011;7781;49.690;6.472;2023-05-07T08:34:51;3.40;;;2.03;;
15363;SDS011;7781;49.690;6.472;2023-05-07T08:37:21;4.90;;;2.07;;
15363;SDS011;7781;49.690;6.472;2023-05-07T08:39:54;2.90;;;2.00;;
15363;SDS011;7781;49.690;6.472;2023-05-07T08:42:29;3.30;;;1.70;;
15363;SDS011;7781;49.690;6.472;2023-05-07T08:44:59;4.30;;;2.00;;
15363;SDS011;7781;49.690;6.472;2023-05-07T08:47:35;3.70;;;2.20;;
15363;SDS011;7781;49.690;6.472;2023-05-07T08:50:11;1.97;;;1.77;;
15363;SDS011;7781;49.690;6.472;2023-05-07T08:52:42;2.33;;;1.73;;
15363;SDS011;7781;49.690;6.472;2023-05-07T08:55:11;2.40;;;1.70;;
15363;SDS011;7781;49.690;6.472;2023-05-07T08:57:45;2.33;;;1.80;;
15363;SDS011;7781;49.690;6.472;2023-05-07T09:00:16;1.87;;;1.63;;
15363;SDS011;7781;49.690;6.472;2023-05-07T09:02:49;2.60;;;1.90;;
15363;SDS011;7781;49.690;6.472;2023-05-07T09:05:19;2.53;;;1.90;;
15363;SDS011;7781;49.690;6.472;2023-05-07T09:07:49;3.43;;;1.90;;
15363;SDS011;7781;49.690;6.472;2023-05-07T09:10:21;2.83;;;1.70;;
15363;SDS011;7781;49.690;6.472;2023-05-07T09:12:52;3.10;;;1.70;;
15363;SDS011;7781;49.690;6.472;2023-05-07T09:15:28;3.00;;;1.70;;
15363;SDS011;7781;49.690;6.472;2023-05-07T09:17:59;2.53;;;1.93;;
15363;SDS011;7781;49.690;6.472;2023-05-07T09:20:33;1.80;;;1.57;;
15363;SDS011;7781;49.690;6.472;2023-05-07T09:23:04;3.70;;;1.63;;
15363;SDS011;7781;49.690;6.472;2023-05-07T09:25:34;2.77;;;1.50;;
15363;SDS011;7781;49.690;6.472;2023-05-07T09:28:13;2.00;;;1.70;;
15363;SDS011;7781;49.690;6.472;2023-05-07T09:30:43;3.43;;;1.50;;
15363;SDS011;7781;49.690;6.472;2023-05-07T09:33:14;2.30;;;1.97;;
15363;SDS011;7781;49.690;6.472;2023-05-07T09:35:50;1.50;;;1.40;;
15363;SDS011;7781;49.690;6.472;2023-05-07T09:38:21;2.10;;;1.90;;
15363;SDS011;7781;49.690;6.472;2023-05-07T09:41:02;3.60;;;1.43;;
15363;SDS011;7781;49.690;6.472;2023-05-07T09:43:37;1.73;;;1.40;;
15363;SDS011;7781;49.690;6.472;2023-05-07T09:46:09;2.57;;;1.50;;
15363;SDS011;7781;49.690;6.472;2023-05-07T09:48:45;3.53;;;1.80;;
15363;SDS011;7781;49.690;6.472;2023-05-07T09:51:21;1.50;;;1.40;;
15363;SDS011;7781;49.690;6.472;2023-05-07T09:53:54;1.70;;;1.60;;
15363;SDS011;7781;49.690;6.472;2023-05-07T09:56:27;2.10;;;1.60;;
15363;SDS011;7781;49.690;6.472;2023-05-07T09:59:00;4.40;;;1.57;;
15363;SDS011;7781;49.690;6.472;2023-05-07T10:01:32;1.63;;;1.50;;
15363;SDS011;7781;49.690;6.472;2023-05-07T10:04:04;2.00;;;1.70;;
15363;SDS011;7781;49.690;6.472;2023-05-07T10:06:34;2.17;;;1.50;;
15363;SDS011;7781;49.690;6.472;2023-05-07T10:09:05;2.43;;;1.50;;
15363;SDS011;7781;49.690;6.472;2023-05-07T10:11:34;2.07;;;1.40;;
15363;SDS011;7781;49.690;6.472;2023-05-07T10:14:05;2.13;;;1.60;;
15363;SDS011;7781;49.690;6.472;2023-05-07T10:16:36;3.00;;;1.57;;
15363;SDS011;7781;49.690;6.472;2023-05-07T10:19:10;2.27;;;1.40;;
15363;SDS011;7781;49.690;6.472;2023-05-07T10:21:44;1.80;;;1.70;;
15363;SDS011;7781;49.690;6.472;2023-05-07T10:24:16;2.07;;;1.80;;
15363;SDS011;7781;49.690;6.472;2023-05-07T10:26:51;2.10;;;1.80;;
15363;SDS011;7781;49.690;6.472;2023-05-07T10:29:25;2.93;;;1.90;;
15363;SDS011;7781;49.690;6.472;2023-05-07T10:32:07;2.80;;;1.90;;
15363;SDS011;7781;49.690;6.472;2023-05-07T10:34:48;4.20;;;1.53;;
15363;SDS011;7781;49.690;6.472;2023-05-07T10:37:22;1.90;;;1.60;;
15363;SDS011;7781;49.690;6.472;2023-05-07T10:39:55;2.80;;;1.40;;
15363;SDS011;7781;49.690;6.472;2023-05-07T10:42:25;5.60;;;1.63;;
15363;SDS011;7781;49.690;6.472;2023-05-07T10:44:57;2.17;;;1.97;;
15363;SDS011;7781;49.690;6.472;2023-05-07T10:53:47;3.17;;;1.30;;
15363;SDS011;7781;49.690;6.472;2023-05-07T10:56:24;1.50;;;1.40;;
15363;SDS011;7781;49.690;6.472;2023-05-07T11:02:16;2.80;;;1.20;;
15363;SDS011;7781;49.690;6.472;2023-05-07T11:08:08;4.13;;;1.50;;
15363;SDS011;7781;49.690;6.472;2023-05-07T11:10:54;2.60;;;1.60;;
15363;SDS011;7781;49.690;6.472;2023-05-07T11:13:51;1.70;;;1.60;;
15363;SDS011;7781;49.690;6.472;2023-05-07T11:16:49;1.40;;;1.30;;
15363;SDS011;7781;49.690;6.472;2023-05-07T11:19:49;1.50;;;1.40;;
15363;SDS011;7781;49.690;6.472;2023-05-07T11:22:36;4.33;;;1.77;;
15363;SDS011;7781;49.690;6.472;2023-05-07T11:25:17;1.57;;;1.43;;
15363;SDS011;7781;49.690;6.472;2023-05-07T11:27:51;2.27;;;1.30;;
15363;SDS011;7781;49.690;6.472;2023-05-07T11:30:22;2.03;;;1.30;;
15363;SDS011;7781;49.690;6.472;2023-05-07T11:32:55;2.90;;;1.63;;
15363;SDS011;7781;49.690;6.472;2023-05-07T11:35:33;3.37;;;1.70;;
15363;SDS011;7781;49.690;6.472;2023-05-07T11:38:08;6.43;;;1.47;;
15363;SDS011;7781;49.690;6.472;2023-05-07T11:40:48;3.30;;;1.60;;
15363;SDS011;7781;49.690;6.472;2023-05-07T11:43:20;2.20;;;1.40;;
15363;SDS011;7781;49.690;6.472;2023-05-07T11:45:49;1.50;;;1.40;;
15363;SDS011;7781;49.690;6.472;2023-05-07T11:48:18;1.93;;;1.30;;
15363;SDS011;7781;49.690;6.472;2023-05-07T11:50:53;1.43;;;1.33;;
15363;SDS011;7781;49.690;6.472;2023-05-07T11:53:35;2.30;;;1.70;;
15363;SDS011;7781;49.690;6.472;2023-05-07T11:56:06;2.20;;;1.40;;
15363;SDS011;7781;49.690;6.472;2023-05-07T11:58:36;1.50;;;1.40;;
15363;SDS011;7781;49.690;6.472;2023-05-07T12:01:07;2.10;;;1.50;;
15363;SDS011;7781;49.690;6.472;2023-05-07T12:03:37;2.87;;;1.27;;
15363;SDS011;7781;49.690;6.472;2023-05-07T12:06:11;2.17;;;1.27;;
15363;SDS011;7781;49.690;6.472;2023-05-07T12:08:41;4.13;;;1.57;;
15363;SDS011;7781;49.690;6.472;2023-05-07T12:11:16;1.67;;;1.57;;
15363;SDS011;7781;49.690;6.472;2023-05-07T12:13:54;1.50;;;1.33;;
15363;SDS011;7781;49.690;6.472;2023-05-07T12:16:25;2.70;;;2.00;;
15363;SDS011;7781;49.690;6.472;2023-05-07T12:18:58;1.60;;;1.50;;
15363;SDS011;7781;49.690;6.472;2023-05-07T12:21:29;4.20;;;1.43;;
15363;SDS011;7781;49.690;6.472;2023-05-07T12:23:58;3.13;;;1.60;;
15363;SDS011;7781;49.690;6.472;2023-05-07T12:26:27;2.03;;;1.60;;
15363;SDS011;7781;49.690;6.472;2023-05-07T12:28:56;1.90;;;1.43;;
15363;SDS011;7781;49.690;6.472;2023-05-07T12:31:25;2.90;;;1.57;;
15363;SDS011;7781;49.690;6.472;2023-05-07T12:33:54;2.07;;;1.63;;
15363;SDS011;7781;49.690;6.472;2023-05-07T12:36:22;2.60;;;2.10;;
15363;SDS011;7781;49.690;6.472;2023-05-07T12:38:54;2.57;;;1.80;;
15363;SDS011;7781;49.690;6.472;2023-05-07T12:41:23;2.60;;;1.63;;
15363;SDS011;7781;49.690;6.472;2023-05-07T12:43:56;2.80;;;1.50;;
15363;SDS011;7781;49.690;6.472;2023-05-07T12:46:25;2.87;;;1.47;;
15363;SDS011;7781;49.690;6.472;2023-05-07T12:48:55;3.20;;;1.63;;
15363;SDS011;7781;49.690;6.472;2023-05-07T12:51:23;2.97;;;1.80;;
15363;SDS011;7781;49.690;6.472;2023-05-07T12:53:57;3.50;;;1.90;;
15363;SDS011;7781;49.690;6.472;2023-05-07T12:56:27;2.30;;;1.63;;
15363;SDS011;7781;49.690;6.472;2023-05-07T12:58:58;1.90;;;1.60;;
15363;SDS011;7781;49.690;6.472;2023-05-07T13:01:28;3.07;;;1.67;;
15363;SDS011;7781;49.690;6.472;2023-05-07T13:04:00;3.30;;;1.90;;
15363;SDS011;7781;49.690;6.472;2023-05-07T13:06:30;2.30;;;2.00;;
15363;SDS011;7781;49.690;6.472;2023-05-07T13:09:01;2.23;;;2.03;;
15363;SDS011;7781;49.690;6.472;2023-05-07T13:11:30;3.10;;;2.07;;
15363;SDS011;7781;49.690;6.472;2023-05-07T13:13:59;2.60;;;1.97;;
15363;SDS011;7781;49.690;6.472;2023-05-07T13:16:28;3.83;;;2.20;;
15363;SDS011;7781;49.690;6.472;2023-05-07T13:18:56;2.30;;;1.87;;
15363;SDS011;7781;49.690;6.472;2023-05-07T13:21:25;2.70;;;2.10;;
15363;SDS011;7781;49.690;6.472;2023-05-07T13:23:54;2.40;;;1.97;;
15363;SDS011;7781;49.690;6.472;2023-05-07T13:26:24;4.87;;;2.00;;
15363;SDS011;7781;49.690;6.472;2023-05-07T13:28:53;4.07;;;2.40;;
15363;SDS011;7781;49.690;6.472;2023-05-07T13:31:24;4.90;;;2.23;;
15363;SDS011;7781;49.690;6.472;2023-05-07T13:33:53;1.90;;;1.80;;
15363;SDS011;7781;49.690;6.472;2023-05-07T13:36:23;3.40;;;1.93;;
15363;SDS011;7781;49.690;6.472;2023-05-07T13:38:53;3.37;;;2.00;;
15363;SDS011;7781;49.690;6.472;2023-05-07T13:41:27;2.07;;;1.90;;
15363;SDS011;7781;49.690;6.472;2023-05-07T13:43:56;5.20;;;2.20;;
15363;SDS011;7781;49.690;6.472;2023-05-07T13:46:24;3.87;;;2.13;;
15363;SDS011;7781;49.690;6.472;2023-05-07T13:48:54;3.50;;;2.00;;
15363;SDS011;7781;49.690;6.472;2023-05-07T13:51:23;2.37;;;1.80;;
15363;SDS011;7781;49.690;6.472;2023-05-07T13:53:52;4.37;;;2.80;;
15363;SDS011;7781;49.690;6.472;2023-05-07T13:56:21;4.47;;;3.00;;
15363;SDS011;7781;49.690;6.472;2023-05-07T13:58:51;3.40;;;2.60;;
15363;SDS011;7781;49.690;6.472;2023-05-07T14:01:26;2.63;;;2.13;;
15363;SDS011;7781;49.690;6.472;2023-05-07T14:03:55;3.70;;;2.10;;
15363;SDS011;7781;49.690;6.472;2023-05-07T14:06:26;2.70;;;2.03;;
15363;SDS011;7781;49.690;6.472;2023-05-07T14:08:54;4.27;;;2.10;;
15363;SDS011;7781;49.690;6.472;2023-05-07T14:11:27;1.97;;;1.87;;
15363;SDS011;7781;49.690;6.472;2023-05-07T14:13:57;3.53;;;2.10;;
15363;SDS011;7781;49.690;6.472;2023-05-07T14:16:26;2.47;;;1.80;;
15363;SDS011;7781;49.690;6.472;2023-05-07T14:18:54;2.10;;;1.90;;
15363;SDS011;7781;49.690;6.472;2023-05-07T14:21:25;3.80;;;1.97;;
15363;SDS011;7781;49.690;6.472;2023-05-07T14:23:54;3.23;;;1.67;;
15363;SDS011;7781;49.690;6.472;2023-05-07T14:26:27;2.37;;;2.00;;
15363;SDS011;7781;49.690;6.472;2023-05-07T14:29:00;3.90;;;2.07;;
15363;SDS011;7781;49.690;6.472;2023-05-07T14:31:29;2.50;;;2.27;;
15363;SDS011;7781;49.690;6.472;2023-05-07T14:34:00;2.90;;;1.80;;
15363;SDS011;7781;49.690;6.472;2023-05-07T14:36:30;5.63;;;2.00;;
15363;SDS011;7781;49.690;6.472;2023-05-07T14:38:58;3.33;;;2.30;;
15363;SDS011;7781;49.690;6.472;2023-05-07T14:41:30;4.20;;;2.13;;
15363;SDS011;7781;49.690;6.472;2023-05-07T14:44:01;2.43;;;1.90;;
15363;SDS011;7781;49.690;6.472;2023-05-07T14:46:31;3.17;;;2.37;;
15363;SDS011;7781;49.690;6.472;2023-05-07T14:49:01;4.17;;;2.20;;
15363;SDS011;7781;49.690;6.472;2023-05-07T14:51:32;2.83;;;2.27;;
15363;SDS011;7781;49.690;6.472;2023-05-07T14:54:03;3.27;;;2.13;;
15363;SDS011;7781;49.690;6.472;2023-05-07T14:56:31;3.37;;;2.20;;
15363;SDS011;7781;49.690;6.472;2023-05-07T14:59:02;3.10;;;2.80;;
15363;SDS011;7781;49.690;6.472;2023-05-07T15:01:31;4.50;;;2.23;;
15363;SDS011;7781;49.690;6.472;2023-05-07T15:04:02;4.23;;;2.30;;
15363;SDS011;7781;49.690;6.472;2023-05-07T15:06:31;4.47;;;2.30;;
15363;SDS011;7781;49.690;6.472;2023-05-07T15:09:00;3.00;;;1.97;;
15363;SDS011;7781;49.690;6.472;2023-05-07T15:11:29;3.20;;;2.50;;
15363;SDS011;7781;49.690;6.472;2023-05-07T15:13:58;3.50;;;2.20;;
15363;SDS011;7781;49.690;6.472;2023-05-07T15:16:32;3.07;;;2.60;;
15363;SDS011;7781;49.690;6.472;2023-05-07T15:19:00;7.67;;;2.40;;
15363;SDS011;7781;49.690;6.472;2023-05-07T15:21:29;2.10;;;1.90;;
15363;SDS011;7781;49.690;6.472;2023-05-07T15:24:01;3.23;;;2.20;;
15363;SDS011;7781;49.690;6.472;2023-05-07T15:26:30;4.60;;;2.20;;
15363;SDS011;7781;49.690;6.472;2023-05-07T15:28:59;2.60;;;2.00;;
15363;SDS011;7781;49.690;6.472;2023-05-07T15:31:37;3.60;;;2.00;;
15363;SDS011;7781;49.690;6.472;2023-05-07T15:34:06;3.13;;;2.33;;
15363;SDS011;7781;49.690;6.472;2023-05-07T15:36:36;4.57;;;2.53;;
15363;SDS011;7781;49.690;6.472;2023-05-07T15:39:06;5.83;;;2.50;;